Maersk Weymouth — VRFS9 — position and weather

sailwx.info

Track history (hours):
 
Tides and Currents Weather Stations Pressure Air Temp Water Temp Dewpoint Dewpoint Depression Visibility Wind Speed Wind Dir Waves Ship Positions

Maersk Weymouth

Last reported at 2018-Jan-22 16:46 UTC. Time now 2018-Jan-23 18:18 UTC.
Position N 25°26' W 079°31'.

Length 175 m; draft 8.3 m.

Type: Cargo ship. MMSI: 477622100.

Date/timePositionNaut miles runAvg speedWind from/ knotsBaromVisibWave heightAir tempDewpointWater temp
2018-Jan-22 16:46N 25°26' W 079°31'415.3
2018-Jan-22 16:31N 25°29' W 079°34'611.2
2018-Jan-22 16:01N 25°34' W 079°37'510.8
2018-Jan-22 15:30N 25°39' W 079°40'510.5
2018-Jan-22 15:00N 25°43' W 079°43'510.3
2018-Jan-22 14:30N 25°47' W 079°47'510.0
2018-Jan-22 14:01N 25°51' W 079°50'5 9.9
2018-Jan-22 13:30N 25°55' W 079°53'510.3
2018-Jan-22 13:00N 25°59' W 079°57'612.0
2018-Jan-22 12:30N 26°04' W 080°01'5 9.3
2018-Jan-22 12:00N 26°06' W 080°06'2 3.3
2018-Jan-22 11:30N 26°04' W 080°07'0 0.0
2018-Jan-22 11:00N 26°04' W 080°07'0 0.0
2018-Jan-22 10:28N 26°04' W 080°07'0 0.0
2018-Jan-22 09:58N 26°04' W 080°07'0 0.0
2018-Jan-22 09:28N 26°04' W 080°07'0 0.0
2018-Jan-22 08:58N 26°04' W 080°07'0 0.0
2018-Jan-22 08:28N 26°04' W 080°07'0 0.0
2018-Jan-22 07:58N 26°04' W 080°07'0 0.0
2018-Jan-22 07:28N 26°04' W 080°07'0 0.0
2018-Jan-22 06:58N 26°04' W 080°07'0 0.0
2018-Jan-22 06:28N 26°04' W 080°07'0 0.0
2018-Jan-22 05:58N 26°04' W 080°07'0 0.0
2018-Jan-22 05:28N 26°04' W 080°07'0 0.0
2018-Jan-22 04:58N 26°04' W 080°07'0 0.0
2018-Jan-22 04:28N 26°04' W 080°07'0 0.0
2018-Jan-22 03:58N 26°04' W 080°07'0 0.0
2018-Jan-22 03:28N 26°04' W 080°07'0 0.0
2018-Jan-22 02:58N 26°04' W 080°07'0 0.0
2018-Jan-22 02:28N 26°04' W 080°07'0 0.0
2018-Jan-22 01:58N 26°04' W 080°07'0 0.0
2018-Jan-22 01:28N 26°04' W 080°07'0 0.0
2018-Jan-22 00:58N 26°04' W 080°07'0 0.0
2018-Jan-22 00:31N 26°04' W 080°07'2 3.3
2018-Jan-22 00:01N 26°06' W 080°06'4 8.5
2018-Jan-21 23:31N 26°05' W 080°01'1 1.2
2018-Jan-21 23:00N 26°06' W 080°00'917.8
2018-Jan-21 22:30N 26°13' W 079°55'816.4
2018-Jan-21 22:01N 26°21' W 079°52'917.6
2018-Jan-21 21:31N 26°29' W 079°52'3116.4
2018-Jan-21 19:37N 27°00' W 079°50'215.9
2018-Jan-21 19:30N 27°02' W 079°50'27616.9
2018-Jan-21 03:09N 31°36' W 080°23'216.6
2018-Jan-21 03:01N 31°38' W 080°24'510.7
2018-Jan-21 02:30N 31°43' W 080°28'5 9.6
2018-Jan-21 02:00N 31°47' W 080°31'5 9.4
2018-Jan-21 01:30N 31°51' W 080°34'5 9.5
2018-Jan-21 01:00N 31°54' W 080°38'5 9.3
2018-Jan-21 00:30N 31°58' W 080°42'5 9.3
2018-Jan-21 00:00N 31°60' W 080°47'611.7
2018-Jan-20 23:30N 32°02' W 080°53'510.6
2018-Jan-20 23:01N 32°05' W 080°59'4 8.5
2018-Jan-20 22:30N 32°05' W 081°04'3 6.3
2018-Jan-20 22:00N 32°06' W 081°07'1 2.4
2018-Jan-20 21:30N 32°07' W 081°08'0 0.0
2018-Jan-20 20:55N 32°07' W 081°08'0 0.0
2018-Jan-20 20:25N 32°07' W 081°08'0 0.0
2018-Jan-20 18:31N 32°07' W 081°08'0 0.0
2018-Jan-20 18:25N 32°07' W 081°08'0 0.0
2018-Jan-20 17:58N 32°07' W 081°08'1 1.6
2018-Jan-20 17:27N 32°08' W 081°08'2 4.1
2018-Jan-20 17:00N 32°06' W 081°07'3 5.5
2018-Jan-20 16:30N 32°05' W 081°04'3 5.8
2018-Jan-20 16:00N 32°06' W 081°01'3 6.9
2018-Jan-20 15:30N 32°04' W 080°57'5 9.3
2018-Jan-20 15:00N 32°02' W 080°53'612.0
2018-Jan-20 14:30N 31°59' W 080°46'510.5
2018-Jan-20 14:00N 31°57' W 080°41'2 3.4
2018-Jan-20 13:30N 31°58' W 080°40'1 2.6
2018-Jan-20 12:58N 31°60' W 080°40'0 0.0
2018-Jan-20 12:28N 31°60' W 080°40'0 0.1
2018-Jan-20 11:58N 31°60' W 080°40'0 0.1
2018-Jan-20 11:28N 31°60' W 080°40'0 0.1
2018-Jan-20 10:58N 31°60' W 080°40'0 0.0
2018-Jan-20 10:28N 31°60' W 080°40'0 0.1
2018-Jan-20 09:58N 31°59' W 080°40'0 0.1
2018-Jan-20 09:28N 31°59' W 080°40'0 0.0
2018-Jan-20 08:58N 31°59' W 080°40'0 0.0
2018-Jan-20 08:28N 31°59' W 080°40'0 0.0
2018-Jan-20 07:58N 31°59' W 080°40'0 0.0
2018-Jan-20 07:28N 31°59' W 080°40'0 0.0
2018-Jan-20 06:58N 31°59' W 080°40'0 0.0
2018-Jan-20 06:28N 31°59' W 080°40'0 0.0
2018-Jan-20 05:58N 31°59' W 080°40'0 0.0
2018-Jan-20 05:28N 31°60' W 080°40'0 0.0
2018-Jan-20 04:58N 31°60' W 080°40'0 0.0
2018-Jan-20 04:28N 31°60' W 080°40'0 0.0
2018-Jan-20 03:58N 31°60' W 080°40'0 0.0
2018-Jan-20 03:28N 31°60' W 080°40'0 0.0
2018-Jan-20 02:58N 31°60' W 080°40'0 0.1
2018-Jan-20 02:28N 31°60' W 080°40'0 0.0
2018-Jan-20 01:58N 31°60' W 080°40'0 0.0
2018-Jan-20 01:28N 31°60' W 080°40'0 0.0
2018-Jan-20 00:58N 31°60' W 080°40'0 0.0
2018-Jan-20 00:28N 31°60' W 080°40'0 0.0
2018-Jan-19 23:58N 31°60' W 080°40'0 0.0
2018-Jan-19 23:28N 31°60' W 080°40'0 0.0
2018-Jan-19 22:58N 31°60' W 080°40'0 0.0
2018-Jan-19 22:28N 31°60' W 080°40'0 0.0
2018-Jan-19 21:58N 31°60' W 080°40'0 0.0
2018-Jan-19 21:28N 31°60' W 080°40'0 0.0
2018-Jan-19 20:58N 31°60' W 080°40'0 0.1
2018-Jan-19 20:28N 31°60' W 080°40'0 0.1
2018-Jan-19 19:58N 31°60' W 080°40'0 0.1
2018-Jan-19 19:28N 31°60' W 080°40'0 0.1
2018-Jan-19 18:58N 31°59' W 080°40'0 0.0
2018-Jan-19 18:28N 31°59' W 080°40'0 0.0
2018-Jan-19 17:58N 31°59' W 080°40'0 0.0
2018-Jan-19 17:28N 31°59' W 080°40'0 0.0
2018-Jan-19 16:58N 31°59' W 080°40'0 0.0
2018-Jan-19 16:28N 31°59' W 080°40'0 0.0
2018-Jan-19 15:58N 31°60' W 080°40'0 0.0
2018-Jan-19 15:28N 31°60' W 080°40'0 0.0
2018-Jan-19 14:58N 31°60' W 080°40'0 0.1
2018-Jan-19 14:28N 31°59' W 080°40'0 0.0
2018-Jan-19 13:58N 31°60' W 080°40'0 0.0
2018-Jan-19 13:28N 31°60' W 080°40'0 0.0
2018-Jan-19 05:59N 31°59' W 080°40'0 0.0
2018-Jan-19 05:30N 31°59' W 080°40'1 1.4
2018-Jan-19 05:00N 31°59' W 080°39'4 7.8
2018-Jan-19 04:30N 31°57' W 080°35'4 8.3
2018-Jan-19 04:00N 31°56' W 080°31'6 6.2
2018-Jan-19 02:58N 31°56' W 080°23'  
Track history (hours):
 
Tides and Currents Weather Stations Pressure Air Temp Water Temp Dewpoint Dewpoint Depression Visibility Wind Speed Wind Dir Waves Ship Positions

Maersk Weymouth

Last reported at 2018-Jan-22 16:46 UTC. Time now 2018-Jan-23 18:18 UTC.
Position N 25°26' W 079°31'.

Length 175 m; draft 8.3 m.

Type: Cargo ship. MMSI: 477622100.

Date/timePositionNaut miles runAvg speedWind from/ knotsBaromVisibWave heightAir tempDewpointWater temp
2018-Jan-22 16:46N 25°26' W 079°31'415.3
2018-Jan-22 16:31N 25°29' W 079°34'611.2
2018-Jan-22 16:01N 25°34' W 079°37'510.8
2018-Jan-22 15:30N 25°39' W 079°40'510.5
2018-Jan-22 15:00N 25°43' W 079°43'510.3
2018-Jan-22 14:30N 25°47' W 079°47'510.0
2018-Jan-22 14:01N 25°51' W 079°50'5 9.9
2018-Jan-22 13:30N 25°55' W 079°53'510.3
2018-Jan-22 13:00N 25°59' W 079°57'612.0
2018-Jan-22 12:30N 26°04' W 080°01'5 9.3
2018-Jan-22 12:00N 26°06' W 080°06'2 3.3
2018-Jan-22 11:30N 26°04' W 080°07'0 0.0
2018-Jan-22 11:00N 26°04' W 080°07'0 0.0
2018-Jan-22 10:28N 26°04' W 080°07'0 0.0
2018-Jan-22 09:58N 26°04' W 080°07'0 0.0
2018-Jan-22 09:28N 26°04' W 080°07'0 0.0
2018-Jan-22 08:58N 26°04' W 080°07'0 0.0
2018-Jan-22 08:28N 26°04' W 080°07'0 0.0
2018-Jan-22 07:58N 26°04' W 080°07'0 0.0
2018-Jan-22 07:28N 26°04' W 080°07'0 0.0
2018-Jan-22 06:58N 26°04' W 080°07'0 0.0
2018-Jan-22 06:28N 26°04' W 080°07'0 0.0
2018-Jan-22 05:58N 26°04' W 080°07'0 0.0
2018-Jan-22 05:28N 26°04' W 080°07'0 0.0
2018-Jan-22 04:58N 26°04' W 080°07'0 0.0
2018-Jan-22 04:28N 26°04' W 080°07'0 0.0
2018-Jan-22 03:58N 26°04' W 080°07'0 0.0
2018-Jan-22 03:28N 26°04' W 080°07'0 0.0
2018-Jan-22 02:58N 26°04' W 080°07'0 0.0
2018-Jan-22 02:28N 26°04' W 080°07'0 0.0
2018-Jan-22 01:58N 26°04' W 080°07'0 0.0
2018-Jan-22 01:28N 26°04' W 080°07'0 0.0
2018-Jan-22 00:58N 26°04' W 080°07'0 0.0
2018-Jan-22 00:31N 26°04' W 080°07'2 3.3
2018-Jan-22 00:01N 26°06' W 080°06'4 8.5
2018-Jan-21 23:31N 26°05' W 080°01'1 1.2
2018-Jan-21 23:00N 26°06' W 080°00'917.8
2018-Jan-21 22:30N 26°13' W 079°55'816.4
2018-Jan-21 22:01N 26°21' W 079°52'917.6
2018-Jan-21 21:31N 26°29' W 079°52'3116.4
2018-Jan-21 19:37N 27°00' W 079°50'215.9
2018-Jan-21 19:30N 27°02' W 079°50'27616.9
2018-Jan-21 03:09N 31°36' W 080°23'216.6
2018-Jan-21 03:01N 31°38' W 080°24'510.7
2018-Jan-21 02:30N 31°43' W 080°28'5 9.6
2018-Jan-21 02:00N 31°47' W 080°31'5 9.4
2018-Jan-21 01:30N 31°51' W 080°34'5 9.5
2018-Jan-21 01:00N 31°54' W 080°38'5 9.3
2018-Jan-21 00:30N 31°58' W 080°42'5 9.3
2018-Jan-21 00:00N 31°60' W 080°47'611.7
2018-Jan-20 23:30N 32°02' W 080°53'510.6
2018-Jan-20 23:01N 32°05' W 080°59'4 8.5
2018-Jan-20 22:30N 32°05' W 081°04'3 6.3
2018-Jan-20 22:00N 32°06' W 081°07'1 2.4
2018-Jan-20 21:30N 32°07' W 081°08'0 0.0
2018-Jan-20 20:55N 32°07' W 081°08'0 0.0
2018-Jan-20 20:25N 32°07' W 081°08'0 0.0
2018-Jan-20 18:31N 32°07' W 081°08'0 0.0
2018-Jan-20 18:25N 32°07' W 081°08'0 0.0
2018-Jan-20 17:58N 32°07' W 081°08'1 1.6
2018-Jan-20 17:27N 32°08' W 081°08'2 4.1
2018-Jan-20 17:00N 32°06' W 081°07'3 5.5
2018-Jan-20 16:30N 32°05' W 081°04'3 5.8
2018-Jan-20 16:00N 32°06' W 081°01'3 6.9
2018-Jan-20 15:30N 32°04' W 080°57'5 9.3
2018-Jan-20 15:00N 32°02' W 080°53'612.0
2018-Jan-20 14:30N 31°59' W 080°46'510.5
2018-Jan-20 14:00N 31°57' W 080°41'2 3.4
2018-Jan-20 13:30N 31°58' W 080°40'1 2.6
2018-Jan-20 12:58N 31°60' W 080°40'0 0.0
2018-Jan-20 12:28N 31°60' W 080°40'0 0.1
2018-Jan-20 11:58N 31°60' W 080°40'0 0.1
2018-Jan-20 11:28N 31°60' W 080°40'0 0.1
2018-Jan-20 10:58N 31°60' W 080°40'0 0.0
2018-Jan-20 10:28N 31°60' W 080°40'0 0.1
2018-Jan-20 09:58N 31°59' W 080°40'0 0.1
2018-Jan-20 09:28N 31°59' W 080°40'0 0.0
2018-Jan-20 08:58N 31°59' W 080°40'0 0.0
2018-Jan-20 08:28N 31°59' W 080°40'0 0.0
2018-Jan-20 07:58N 31°59' W 080°40'0 0.0
2018-Jan-20 07:28N 31°59' W 080°40'0 0.0
2018-Jan-20 06:58N 31°59' W 080°40'0 0.0
2018-Jan-20 06:28N 31°59' W 080°40'0 0.0
2018-Jan-20 05:58N 31°59' W 080°40'0 0.0
2018-Jan-20 05:28N 31°60' W 080°40'0 0.0
2018-Jan-20 04:58N 31°60' W 080°40'0 0.0
2018-Jan-20 04:28N 31°60' W 080°40'0 0.0
2018-Jan-20 03:58N 31°60' W 080°40'0 0.0
2018-Jan-20 03:28N 31°60' W 080°40'0 0.0
2018-Jan-20 02:58N 31°60' W 080°40'0 0.1
2018-Jan-20 02:28N 31°60' W 080°40'0 0.0
2018-Jan-20 01:58N 31°60' W 080°40'0 0.0
2018-Jan-20 01:28N 31°60' W 080°40'0 0.0
2018-Jan-20 00:58N 31°60' W 080°40'0 0.0
2018-Jan-20 00:28N 31°60' W 080°40'0 0.0
2018-Jan-19 23:58N 31°60' W 080°40'0 0.0
2018-Jan-19 23:28N 31°60' W 080°40'0 0.0
2018-Jan-19 22:58N 31°60' W 080°40'0 0.0
2018-Jan-19 22:28N 31°60' W 080°40'0 0.0
2018-Jan-19 21:58N 31°60' W 080°40'0 0.0
2018-Jan-19 21:28N 31°60' W 080°40'0 0.0
2018-Jan-19 20:58N 31°60' W 080°40'0 0.1
2018-Jan-19 20:28N 31°60' W 080°40'0 0.1
2018-Jan-19 19:58N 31°60' W 080°40'0 0.1
2018-Jan-19 19:28N 31°60' W 080°40'0 0.1
2018-Jan-19 18:58N 31°59' W 080°40'0 0.0
2018-Jan-19 18:28N 31°59' W 080°40'0 0.0
2018-Jan-19 17:58N 31°59' W 080°40'0 0.0
2018-Jan-19 17:28N 31°59' W 080°40'0 0.0
2018-Jan-19 16:58N 31°59' W 080°40'0 0.0
2018-Jan-19 16:28N 31°59' W 080°40'0 0.0
2018-Jan-19 15:58N 31°60' W 080°40'0 0.0
2018-Jan-19 15:28N 31°60' W 080°40'0 0.0
2018-Jan-19 14:58N 31°60' W 080°40'0 0.1
2018-Jan-19 14:28N 31°59' W 080°40'0 0.0
2018-Jan-19 13:58N 31°60' W 080°40'0 0.0
2018-Jan-19 13:28N 31°60' W 080°40'0 0.0
2018-Jan-19 05:59N 31°59' W 080°40'0 0.0
2018-Jan-19 05:30N 31°59' W 080°40'1 1.4
2018-Jan-19 05:00N 31°59' W 080°39'4 7.8
2018-Jan-19 04:30N 31°57' W 080°35'4 8.3
2018-Jan-19 04:00N 31°56' W 080°31'6 6.2
2018-Jan-19 02:58N 31°56' W 080°23'  

Dump ship's entire track history